Alliance, North Carolina
Current Conditions -  °F | °C
As of 4:54 AM on Friday 28 Nov 2014 (Local Time) from KEWN Reporting Station
Scattered Clouds Scattered Clouds  
Wind Chill: 30°   Ceiling: Unl
Heat Index: 36°   Visibility: 10mi
Dew Point: 25°   Wind: 7mph
Humidity: 64%   Direction: 310°NW
Pressure: 30.28"   Gusts: NA
Location:  35.14°N, 76.8°W
Report Text: KEWN 280954Z AUTO 31006KT 10SM SCT055 02/M04 A3028 RMK AO2 SLP252 T00221039
Loading
Personal Weather Stations






























Interactive Weather Map New forecast layout! Learn more

10-Day Weather Forecast

Advertisements
Track Severe Weather on mobile